Time;durP1;ratioP1;P1;durP2;ratioP2;P2;SDS_P1;SDS_P2;PMS_P1;PMS_P2;Temp;Humidity;BMP_temperature;BMP_pressure;BME280_temperature;BME280_humidity;BME280_pressure;Samples;Min_cycle;Max_cycle;Signal;HPM_P1;HPM_P2
2023/08/25 00:01:30;;;;;;;9.18;5.78;;;;;21.60;98164.00;;;;5095740;28;20492;-63
2023/08/25 00:03:57;;;;;;;9.43;6.57;;;;;21.60;98174.00;;;;5095799;28;20119;-64
2023/08/25 00:06:24;;;;;;;7.15;6.35;;;;;21.70;98163.00;;;;5093049;28;20048;-63
2023/08/25 00:08:50;;;;;;;10.90;6.47;;;;;21.60;98156.00;;;;5095238;28;20468;-63
2023/08/25 00:11:17;;;;;;;10.38;6.70;;;;;21.60;98156.00;;;;5094098;28;20044;-63
2023/08/25 00:13:43;;;;;;;8.52;6.30;;;;;21.60;98164.00;;;;5094295;28;20466;-63
2023/08/25 00:16:11;;;;;;;6.75;6.13;;;;;21.70;98154.00;;;;5093274;28;20055;-63
2023/08/25 00:18:37;;;;;;;8.32;6.53;;;;;21.50;98141.00;;;;5093109;28;20094;-63
2023/08/25 00:21:04;;;;;;;12.40;5.97;;;;;21.50;98145.00;;;;5092675;28;20052;-63
2023/08/25 00:23:31;;;;;;;8.55;6.85;;;;;21.50;98146.00;;;;5093970;28;20494;-64
2023/08/25 00:25:57;;;;;;;7.88;6.00;;;;;21.60;98149.00;;;;5093598;28;20048;-63
2023/08/25 00:28:24;;;;;;;7.95;5.90;;;;;21.60;98143.00;;;;5092294;28;20040;-63
2023/08/25 00:30:51;;;;;;;8.88;6.55;;;;;21.70;98137.00;;;;5093531;28;20119;-63
2023/08/25 00:33:18;;;;;;;9.05;6.50;;;;;21.70;98134.00;;;;5093544;28;20036;-63
2023/08/25 00:35:45;;;;;;;11.63;6.35;;;;;21.60;98139.00;;;;5093209;28;20082;-63
2023/08/25 00:38:14;;;;;;;7.57;6.18;;;;;21.60;98141.00;;;;5092056;28;20040;-63
2023/08/25 00:40:40;;;;;;;9.05;6.10;;;;;21.50;98136.00;;;;5093457;28;20127;-63
2023/08/25 00:43:07;;;;;;;8.02;6.43;;;;;21.50;98146.00;;;;5093306;28;20044;-63
2023/08/25 00:45:38;;;;;;;8.25;6.35;;;;;21.60;98135.00;;;;5093545;28;20101;-63
2023/08/25 00:48:06;;;;;;;7.82;6.55;;;;;21.40;98135.00;;;;5091879;28;20050;-63
2023/08/25 00:50:34;;;;;;;10.05;6.10;;;;;21.30;98144.00;;;;5092052;28;20042;-63
2023/08/25 00:53:01;;;;;;;9.68;6.47;;;;;21.40;98133.00;;;;5092121;28;20083;-63
2023/08/25 00:55:28;;;;;;;10.95;6.25;;;;;21.50;98130.00;;;;5093235;28;20101;-63
2023/08/25 00:57:55;;;;;;;8.90;6.28;;;;;21.40;98131.00;;;;5091849;28;20048;-63
2023/08/25 01:00:22;;;;;;;10.90;6.68;;;;;21.40;98134.00;;;;5091356;28;20131;-63
2023/08/25 01:02:49;;;;;;;8.70;6.53;;;;;21.40;98126.00;;;;5093111;28;20044;-63
2023/08/25 01:05:17;;;;;;;12.07;5.80;;;;;21.50;98137.00;;;;5091732;28;20048;-63
2023/08/25 01:07:43;;;;;;;6.43;4.82;;;;;21.60;98141.00;;;;5091450;28;20044;-63
2023/08/25 01:10:11;;;;;;;6.88;5.70;;;;;21.60;98146.00;;;;5091750;28;20416;-63
2023/08/25 01:13:00;;;;;;;8.00;5.43;;;;;21.70;98134.00;;;;5093011;28;20048;-63
2023/08/25 01:15:32;;;;;;;6.03;5.28;;;;;21.70;98136.00;;;;5093019;28;20618;-63
2023/08/25 01:18:12;;;;;;;6.15;5.60;;;;;21.80;98136.00;;;;5091895;28;20063;-63
2023/08/25 01:20:40;;;;;;;6.05;4.72;;;;;21.80;98141.00;;;;5091641;28;20492;-63
2023/08/25 01:23:22;;;;;;;6.88;5.57;;;;;21.90;98155.00;;;;5091734;28;20055;-63
2023/08/25 01:25:51;;;;;;;7.32;4.97;;;;;21.90;98157.00;;;;5093079;28;20109;-63
2023/08/25 01:28:20;;;;;;;8.57;5.03;;;;;21.90;98161.00;;;;5092698;28;20040;-62
2023/08/25 01:30:48;;;;;;;7.05;5.25;;;;;21.90;98150.00;;;;5092810;28;20040;-63
2023/08/25 01:33:16;;;;;;;7.85;5.78;;;;;21.90;98155.00;;;;5092789;28;20044;-63
2023/08/25 01:35:56;;;;;;;5.10;4.53;;;;;21.90;98146.00;;;;5093033;28;20044;-63
2023/08/25 01:38:29;;;;;;;5.30;4.80;;;;;21.90;98149.00;;;;5092299;28;20062;-63
2023/08/25 01:41:10;;;;;;;5.87;5.10;;;;;21.80;98146.00;;;;5093280;28;20093;-63
2023/08/25 01:43:46;;;;;;;7.25;4.88;;;;;21.90;98131.00;;;;5091728;28;20056;-62
2023/08/25 01:46:15;;;;;;;6.20;4.70;;;;;21.90;98133.00;;;;5092791;28;20105;-63
2023/08/25 01:48:44;;;;;;;7.07;4.75;;;;;21.90;98139.00;;;;5092849;28;20119;-63
2023/08/25 01:51:11;;;;;;;5.22;4.50;;;;;21.90;98135.00;;;;5092720;28;20554;-63
2023/08/25 01:53:38;;;;;;;5.30;4.60;;;;;21.90;98135.00;;;;5093035;28;20059;-63
2023/08/25 01:56:04;;;;;;;5.47;4.65;;;;;21.90;98133.00;;;;5092627;28;20044;-63
2023/08/25 01:58:31;;;;;;;6.05;4.88;;;;;21.90;98137.00;;;;5091746;28;20503;-62
2023/08/25 02:00:57;;;;;;;6.13;4.47;;;;;21.90;98137.00;;;;5092754;28;20084;-62
2023/08/25 02:03:24;;;;;;;6.07;4.70;;;;;21.90;98132.00;;;;5091926;28;20052;-64
2023/08/25 02:05:50;;;;;;;7.95;4.70;;;;;21.90;98127.00;;;;5092056;28;20143;-63
2023/08/25 02:08:17;;;;;;;5.95;4.03;;;;;21.90;98119.00;;;;5091884;28;20128;-62
2023/08/25 02:10:44;;;;;;;5.63;4.45;;;;;21.90;98125.00;;;;5091954;28;20040;-63
2023/08/25 02:13:10;;;;;;;6.72;4.68;;;;;21.90;98122.00;;;;5091829;28;20044;-63
2023/08/25 02:15:37;;;;;;;5.50;4.25;;;;;21.90;98117.00;;;;5090608;28;20091;-62
2023/08/25 02:18:04;;;;;;;6.95;5.05;;;;;21.80;98103.00;;;;5091464;28;20044;-62
2023/08/25 02:20:31;;;;;;;7.07;4.97;;;;;21.70;98098.00;;;;5094378;28;20055;-62
2023/08/25 02:22:57;;;;;;;9.10;5.75;;;;;21.60;98091.00;;;;5094524;28;20090;-62
2023/08/25 02:25:24;;;;;;;7.28;5.40;;;;;21.50;98094.00;;;;5094523;28;20062;-63
2023/08/25 02:27:50;;;;;;;8.68;5.68;;;;;21.40;98089.00;;;;5094418;28;20071;-62
2023/08/25 02:30:17;;;;;;;9.30;5.10;;;;;21.40;98099.00;;;;5094375;28;20142;-62
2023/08/25 02:32:44;;;;;;;6.55;5.45;;;;;21.20;98087.00;;;;5094426;28;20123;-63
2023/08/25 02:35:10;;;;;;;6.28;5.70;;;;;21.20;98090.00;;;;5094245;28;20044;-62
2023/08/25 02:37:59;;;;;;;7.90;5.85;;;;;21.20;98089.00;;;;5094334;28;20370;-62
2023/08/25 02:40:27;;;;;;;9.77;5.82;;;;;21.10;98093.00;;;;5094091;28;20098;-62
2023/08/25 02:42:54;;;;;;;8.68;6.22;;;;;21.20;98088.00;;;;5095647;28;20118;-62
2023/08/25 02:45:24;;;;;;;9.65;5.63;;;;;21.10;98077.00;;;;5094033;28;20105;-63
2023/08/25 02:47:53;;;;;;;8.55;6.18;;;;;21.10;98070.00;;;;5094184;28;20048;-62
2023/08/25 02:50:21;;;;;;;6.82;5.68;;;;;21.10;98067.00;;;;5095185;28;20085;-62
2023/08/25 02:52:48;;;;;;;7.15;6.00;;;;;21.00;98063.00;;;;5094124;28;20519;-63
2023/08/25 02:55:17;;;;;;;10.82;6.40;;;;;20.90;98056.00;;;;5095216;28;20082;-62
2023/08/25 02:57:45;;;;;;;10.77;6.22;;;;;20.80;98047.00;;;;5093996;28;20451;-63
2023/08/25 03:00:14;;;;;;;10.70;5.88;;;;;20.80;98041.00;;;;5093563;28;20048;-62
2023/08/25 03:02:41;;;;;;;17.13;15.25;;;;;20.70;98044.00;;;;5094144;28;20472;-62
2023/08/25 03:05:09;;;;;;;14.95;8.02;;;;;20.70;98051.00;;;;5093749;28;20044;-63
2023/08/25 03:07:36;;;;;;;8.57;7.30;;;;;20.80;98056.00;;;;5094843;28;20123;-62
2023/08/25 03:10:03;;;;;;;8.00;6.15;;;;;20.90;98053.00;;;;5094769;28;20071;-62
2023/08/25 03:12:31;;;;;;;10.13;6.72;;;;;20.90;98056.00;;;;5093564;28;20510;-63
2023/08/25 03:14:58;;;;;;;13.15;7.45;;;;;20.90;98054.00;;;;5093562;28;20055;-63
2023/08/25 03:17:25;;;;;;;9.52;7.63;;;;;20.90;98049.00;;;;5094947;28;20032;-63
2023/08/25 03:19:52;;;;;;;7.03;5.90;;;;;20.90;98050.00;;;;5093030;28;20056;-62
2023/08/25 03:22:19;;;;;;;6.65;6.00;;;;;20.90;98043.00;;;;5093542;28;20505;-64
2023/08/25 03:24:46;;;;;;;7.03;6.10;;;;;21.00;98046.00;;;;5094737;28;20094;-63
2023/08/25 03:27:13;;;;;;;9.10;6.43;;;;;20.90;98035.00;;;;5094664;28;20063;-63
2023/08/25 03:29:43;;;;;;;12.02;6.75;;;;;20.80;98027.00;;;;5093049;28;20099;-63
2023/08/25 03:32:10;;;;;;;9.38;7.32;;;;;20.80;98031.00;;;;5093621;28;20558;-62
2023/08/25 03:34:37;;;;;;;8.90;6.32;;;;;20.70;98014.00;;;;5093270;28;20080;-62
2023/08/25 03:37:05;;;;;;;8.73;7.10;;;;;20.70;98003.00;;;;5093480;28;20135;-62
2023/08/25 03:39:32;;;;;;;13.85;7.13;;;;;20.60;98000.00;;;;5092993;28;20050;-62
2023/08/25 03:41:59;;;;;;;10.15;7.35;;;;;20.60;98000.00;;;;5093281;28;20044;-62
2023/08/25 03:44:26;;;;;;;10.88;8.10;;;;;20.60;98003.00;;;;5093034;28;20040;-62
2023/08/25 03:46:53;;;;;;;9.48;6.15;;;;;20.70;98036.00;;;;5094326;28;20044;-62
2023/08/25 03:49:20;;;;;;;11.27;6.22;;;;;20.80;98084.00;;;;5092575;28;20516;-63
2023/08/25 03:51:48;;;;;;;10.02;5.80;;;;;20.80;98080.00;;;;5094257;28;20040;-63
2023/08/25 03:54:17;;;;;;;7.00;6.30;;;;;20.90;98062.00;;;;5092955;28;20044;-61
2023/08/25 03:56:43;;;;;;;5.60;4.57;;;;;21.00;98039.00;;;;5075928;28;20059;-61
2023/08/25 03:59:11;;;;;;;17.25;10.13;;;;;21.00;97965.00;;;;5093991;28;20036;-63
2023/08/25 04:01:37;;;;;;;9.88;6.32;;;;;20.80;97892.00;;;;5092670;28;20040;-63
2023/08/25 04:04:04;;;;;;;7.40;4.78;;;;;20.80;97824.00;;;;5092520;28;20052;-63
2023/08/25 04:06:31;;;;;;;9.70;5.45;;;;;20.80;97845.00;;;;5093876;28;20451;-64
2023/08/25 04:08:58;;;;;;;9.38;5.25;;;;;20.80;97904.00;;;;5092563;28;20048;-64
2023/08/25 04:11:25;;;;;;;9.52;4.10;;;;;21.00;97913.00;;;;5093507;28;20044;-63
2023/08/25 04:13:51;;;;;;;9.02;5.43;;;;;21.10;97905.00;;;;5093851;28;20211;-62
2023/08/25 04:16:18;;;;;;;6.88;4.90;;;;;21.20;97919.00;;;;5092410;28;20044;-63
2023/08/25 04:18:45;;;;;;;9.65;5.00;;;;;21.20;97936.00;;;;5092355;28;20063;-64
2023/08/25 04:21:12;;;;;;;7.10;5.25;;;;;21.20;97934.00;;;;5092314;28;20051;-63
2023/08/25 04:23:38;;;;;;;6.07;4.97;;;;;21.10;97943.00;;;;5093443;28;20040;-63
2023/08/25 04:26:05;;;;;;;7.20;4.88;;;;;21.10;97961.00;;;;5093627;28;20040;-63
2023/08/25 04:28:32;;;;;;;7.15;5.75;;;;;21.10;97964.00;;;;5092344;28;20058;-63
2023/08/25 04:30:58;;;;;;;9.20;5.10;;;;;21.10;97954.00;;;;5092004;28;20083;-63
2023/08/25 04:33:32;;;;;;;7.20;5.25;;;;;21.10;97980.00;;;;5092366;28;20044;-63
2023/08/25 04:35:59;;;;;;;7.82;5.63;;;;;21.20;97979.00;;;;5092428;28;20130;-61
2023/08/25 04:38:26;;;;;;;6.22;5.00;;;;;21.20;97970.00;;;;5092367;28;20138;-61
2023/08/25 04:40:53;;;;;;;10.73;5.40;;;;;21.20;98007.00;;;;5091457;28;20519;-62
2023/08/25 04:43:21;;;;;;;11.63;5.20;;;;;21.20;98049.00;;;;5075394;28;20101;-62
2023/08/25 04:45:48;;;;;;;7.57;5.47;;;;;21.20;98080.00;;;;5092447;28;20044;-62
2023/08/25 04:48:14;;;;;;;8.27;4.90;;;;;21.20;98066.00;;;;5091911;28;20051;-63
2023/08/25 04:50:41;;;;;;;6.38;4.50;;;;;21.20;98073.00;;;;5091803;28;20044;-63
2023/08/25 04:53:07;;;;;;;8.05;4.20;;;;;21.30;98101.00;;;;5092054;28;20489;-62
2023/08/25 04:55:34;;;;;;;6.35;3.75;;;;;21.30;98166.00;;;;5091727;28;20076;-63
2023/08/25 04:58:03;;;;;;;7.55;4.80;;;;;21.30;98178.00;;;;5091511;28;20068;-62
2023/08/25 05:00:29;;;;;;;5.88;5.28;;;;;21.30;98177.00;;;;5091307;28;20051;-62
2023/08/25 05:02:56;;;;;;;7.30;4.72;;;;;21.30;98178.00;;;;5091470;28;20051;-62
2023/08/25 05:05:23;;;;;;;8.45;5.28;;;;;21.40;98180.00;;;;5091458;28;20150;-63
2023/08/25 05:07:52;;;;;;;7.47;4.60;;;;;21.40;98171.00;;;;5091450;28;20075;-62
2023/08/25 05:10:19;;;;;;;9.20;4.30;;;;;21.40;98178.00;;;;5091112;28;20043;-62
2023/08/25 05:12:46;;;;;;;6.13;4.53;;;;;21.40;98181.00;;;;5091345;28;20051;-62
2023/08/25 05:15:13;;;;;;;5.95;4.50;;;;;21.40;98173.00;;;;5091034;28;20044;-62
2023/08/25 05:17:39;;;;;;;4.85;4.35;;;;;21.40;98173.00;;;;5091276;28;20044;-62
2023/08/25 05:20:08;;;;;;;6.82;4.05;;;;;21.50;98189.00;;;;5090935;28;20545;-63
2023/08/25 05:22:35;;;;;;;6.63;5.20;;;;;21.50;98172.00;;;;5091095;28;20151;-63
2023/08/25 05:25:02;;;;;;;8.25;4.57;;;;;21.50;98155.00;;;;5091118;28;20052;-63
2023/08/25 05:27:30;;;;;;;11.35;5.30;;;;;21.30;98140.00;;;;5091194;28;20063;-62
2023/08/25 05:29:57;;;;;;;8.63;5.82;;;;;21.20;98091.00;;;;5090700;28;20497;-62
2023/08/25 05:32:24;;;;;;;8.45;4.70;;;;;21.10;98064.00;;;;5091034;28;20068;-62
2023/08/25 05:35:18;;;;;;;7.55;5.07;;;;;21.00;98044.00;;;;5090815;28;20134;-62
2023/08/25 05:37:48;;;;;;;6.38;4.82;;;;;21.00;98039.00;;;;5090850;28;20481;-62
2023/08/25 05:40:16;;;;;;;11.52;9.30;;;;;21.10;98027.00;;;;5090769;28;20418;-62
2023/08/25 05:42:44;;;;;;;10.32;7.05;;;;;21.10;98002.00;;;;5092196;28;20040;-62
2023/08/25 05:45:10;;;;;;;10.05;5.75;;;;;21.10;97995.00;;;;5090919;28;20607;-62
2023/08/25 05:47:37;;;;;;;8.52;5.45;;;;;21.00;97985.00;;;;5092158;28;20075;-62
2023/08/25 05:50:05;;;;;;;7.00;4.97;;;;;21.10;98004.00;;;;5090628;28;20127;-63
2023/08/25 05:52:31;;;;;;;6.25;4.82;;;;;21.20;98018.00;;;;5091100;28;20139;-62
2023/08/25 05:54:58;;;;;;;6.50;4.90;;;;;21.40;98026.00;;;;5096521;28;20138;-64
2023/08/25 05:57:24;;;;;;;6.57;4.45;;;;;21.50;98031.00;;;;5096560;28;20079;-63
2023/08/25 05:59:51;;;;;;;8.23;4.80;;;;;21.60;98032.00;;;;5096598;28;20036;-63
2023/08/25 06:02:17;;;;;;;7.40;5.10;;;;;21.70;98047.00;;;;5096742;28;20102;-63
2023/08/25 06:04:44;;;;;;;8.20;5.15;;;;;21.80;98039.00;;;;5096674;28;20561;-63
2023/08/25 06:07:11;;;;;;;7.43;4.95;;;;;21.90;98055.00;;;;5095870;28;20487;-64
2023/08/25 06:09:37;;;;;;;7.47;4.85;;;;;21.90;98050.00;;;;5096802;28;20408;-63
2023/08/25 06:12:04;;;;;;;7.65;4.50;;;;;21.90;98051.00;;;;5097165;28;20042;-63
2023/08/25 06:14:31;;;;;;;8.88;5.25;;;;;21.90;98061.00;;;;5097188;28;20038;-61
2023/08/25 06:17:02;;;;;;;6.93;4.43;;;;;22.00;98066.00;;;;5097393;28;20397;-62
2023/08/25 06:19:28;;;;;;;7.03;5.18;;;;;22.00;98077.00;;;;5097076;28;20032;-62
2023/08/25 06:21:55;;;;;;;6.72;4.90;;;;;22.10;98060.00;;;;5097198;28;20074;-63
2023/08/25 06:24:22;;;;;;;7.97;5.60;;;;;22.10;98042.00;;;;5095961;28;20472;-62
2023/08/25 06:26:48;;;;;;;9.95;5.50;;;;;22.10;98043.00;;;;5096478;28;20122;-62
2023/08/25 06:29:15;;;;;;;7.47;5.63;;;;;22.00;98045.00;;;;5095986;28;20048;-62
2023/08/25 06:31:41;;;;;;;7.32;6.00;;;;;21.90;98050.00;;;;5096531;28;20048;-63
2023/08/25 06:34:08;;;;;;;13.43;10.98;;;;;21.90;98035.00;;;;5096732;28;20055;-62
2023/08/25 06:36:35;;;;;;;12.68;8.95;;;;;21.90;98025.00;;;;5096482;28;20097;-63
2023/08/25 06:39:01;;;;;;;9.30;6.57;;;;;21.80;98014.00;;;;5098325;28;20127;-62
2023/08/25 06:41:28;;;;;;;8.65;6.75;;;;;21.80;98009.00;;;;5097905;28;20511;-62
2023/08/25 06:43:59;;;;;;;9.93;7.45;;;;;21.80;98003.00;;;;5094427;28;20093;-62
2023/08/25 06:46:26;;;;;;;11.70;6.53;;;;;21.80;98003.00;;;;5095713;28;20044;-63
2023/08/25 06:48:52;;;;;;;9.15;5.47;;;;;21.80;98014.00;;;;5095388;28;20036;-61
2023/08/25 06:51:19;;;;;;;9.05;5.70;;;;;21.90;98030.00;;;;5095108;28;20490;-62
2023/08/25 06:53:46;;;;;;;13.57;9.10;;;;;22.00;98021.00;;;;5095458;28;20044;-63
2023/08/25 06:56:13;;;;;;;10.30;6.13;;;;;22.00;98025.00;;;;5095117;28;20075;-62
2023/08/25 06:58:39;;;;;;;8.82;5.03;;;;;21.90;98023.00;;;;5095171;28;20036;-62
2023/08/25 07:01:06;;;;;;;8.70;6.88;;;;;22.00;98029.00;;;;5095084;28;20086;-63
2023/08/25 07:03:34;;;;;;;11.13;5.78;;;;;22.10;98032.00;;;;5094800;28;20076;-63
2023/08/25 07:06:01;;;;;;;7.85;5.30;;;;;22.30;98035.00;;;;5077063;28;20042;-63
2023/08/25 07:08:28;;;;;;;5.75;5.25;;;;;22.40;98055.00;;;;5094781;28;20062;-62
2023/08/25 07:10:55;;;;;;;8.13;5.28;;;;;22.60;98041.00;;;;5094638;28;20075;-65
2023/08/25 07:13:22;;;;;;;10.98;7.45;;;;;22.80;98058.00;;;;5093734;28;20051;-65
2023/08/25 07:15:49;;;;;;;8.90;5.03;;;;;23.00;98050.00;;;;5094985;28;20131;-65
2023/08/25 07:18:16;;;;;;;6.85;4.75;;;;;23.20;98066.00;;;;5094887;28;20044;-65
2023/08/25 07:20:43;;;;;;;9.43;5.35;;;;;23.40;98075.00;;;;5093266;28;20040;-69
2023/08/25 07:23:09;;;;;;;6.03;3.60;;;;;23.40;98086.00;;;;5093250;28;20048;-65
2023/08/25 07:25:37;;;;;;;5.03;3.75;;;;;23.40;98088.00;;;;5094501;28;20070;-65
2023/08/25 07:28:04;;;;;;;7.80;3.67;;;;;23.40;98077.00;;;;5094648;28;20540;-65
2023/08/25 07:30:31;;;;;;;4.88;3.97;;;;;23.50;98072.00;;;;5092914;28;20047;-66
2023/08/25 07:32:58;;;;;;;6.65;3.25;;;;;23.60;98061.00;;;;5093469;28;20051;-67
2023/08/25 07:35:24;;;;;;;6.95;4.30;;;;;23.70;98055.00;;;;5093035;28;20036;-66
2023/08/25 07:37:53;;;;;;;4.30;3.20;;;;;23.70;98051.00;;;;5094466;28;20050;-68
2023/08/25 07:40:21;;;;;;;3.97;2.65;;;;;23.80;98029.00;;;;5094122;28;20569;-65
2023/08/25 07:42:48;;;;;;;4.45;3.38;;;;;23.80;98039.00;;;;5094257;28;20119;-67
2023/08/25 07:45:15;;;;;;;5.40;3.78;;;;;23.90;98033.00;;;;5094187;28;20093;-66
2023/08/25 07:47:41;;;;;;;8.07;2.78;;;;;24.00;98031.00;;;;5092981;28;20040;-66
2023/08/25 07:50:09;;;;;;;7.32;2.42;;;;;24.00;98047.00;;;;5094085;28;20093;-67
2023/08/25 07:52:35;;;;;;;3.40;2.80;;;;;24.10;98054.00;;;;5094231;28;20048;-65
2023/08/25 07:55:02;;;;;;;5.32;2.95;;;;;24.10;98062.00;;;;5093663;28;20119;-65
2023/08/25 07:57:29;;;;;;;3.55;2.70;;;;;24.20;98052.00;;;;5092940;28;20079;-65
2023/08/25 07:59:55;;;;;;;4.57;2.70;;;;;24.30;98044.00;;;;5092710;28;20075;-64
2023/08/25 08:02:22;;;;;;;4.38;2.70;;;;;24.30;98036.00;;;;5093132;28;20048;-65
2023/08/25 08:04:49;;;;;;;3.28;2.97;;;;;24.30;98044.00;;;;5094331;28;20642;-64
2023/08/25 08:07:15;;;;;;;5.15;2.80;;;;;24.20;98039.00;;;;5092924;28;20048;-66
2023/08/25 08:09:42;;;;;;;4.57;2.63;;;;;24.20;98044.00;;;;5092355;28;20058;-66
2023/08/25 08:12:08;;;;;;;4.82;2.40;;;;;24.30;98052.00;;;;5093129;28;20123;-66
2023/08/25 08:14:36;;;;;;;4.80;2.75;;;;;24.20;98053.00;;;;5092753;28;20488;-65
2023/08/25 08:17:12;;;;;;;5.05;2.70;;;;;24.30;98058.00;;;;5093021;28;20137;-65
2023/08/25 08:19:39;;;;;;;2.60;2.40;;;;;24.30;98055.00;;;;5092335;28;20040;-66
2023/08/25 08:22:05;;;;;;;3.75;2.03;;;;;24.30;98046.00;;;;5093509;28;20040;-64
2023/08/25 08:24:34;;;;;;;2.60;2.40;;;;;24.40;98039.00;;;;5093667;28;20093;-66
2023/08/25 08:27:18;;;;;;;3.50;2.57;;;;;24.50;98075.00;;;;5093592;28;20073;-66
2023/08/25 08:29:46;;;;;;;3.45;2.13;;;;;24.70;98076.00;;;;5091995;28;20044;-67
2023/08/25 08:32:14;;;;;;;2.40;2.20;;;;;24.80;98080.00;;;;5092395;28;20072;-66
2023/08/25 08:34:40;;;;;;;3.47;2.10;;;;;24.90;98079.00;;;;5092237;28;20044;-66
2023/08/25 08:37:07;;;;;;;3.13;2.22;;;;;25.00;98081.00;;;;5093813;28;20086;-66
2023/08/25 08:39:37;;;;;;;2.40;1.90;;;;;25.10;98063.00;;;;5092092;28;20048;-66
2023/08/25 08:42:05;;;;;;;4.82;1.77;;;;;25.30;98064.00;;;;5093715;28;20138;-65
2023/08/25 08:44:36;;;;;;;4.47;1.95;;;;;25.40;98053.00;;;;5093248;28;20114;-65
2023/08/25 08:47:06;;;;;;;4.15;2.38;;;;;25.70;98048.00;;;;5093165;28;20044;-66
2023/08/25 08:49:34;;;;;;;3.42;2.55;;;;;25.90;98045.00;;;;5092848;28;20157;-67
2023/08/25 08:52:01;;;;;;;4.90;2.38;;;;;26.00;98044.00;;;;5091949;28;20424;-67
2023/08/25 08:54:28;;;;;;;2.70;2.13;;;;;26.00;98054.00;;;;5092979;28;20040;-67
2023/08/25 08:56:55;;;;;;;5.03;2.97;;;;;26.00;98045.00;;;;5093247;28;20056;-66
2023/08/25 08:59:22;;;;;;;2.22;2.03;;;;;26.10;98047.00;;;;5091318;28;20078;-66
2023/08/25 09:01:49;;;;;;;3.05;2.00;;;;;26.10;98048.00;;;;5092842;28;20046;-66
2023/08/25 09:04:22;;;;;;;2.90;2.60;;;;;26.10;98037.00;;;;5092727;28;20132;-66
2023/08/25 09:06:51;;;;;;;4.85;2.47;;;;;26.10;98037.00;;;;5092850;28;20040;-66
2023/08/25 09:09:19;;;;;;;2.70;1.92;;;;;26.10;98027.00;;;;5091100;28;20097;-66
2023/08/25 09:11:47;;;;;;;2.38;2.17;;;;;26.10;98033.00;;;;5092635;28;20043;-65
2023/08/25 09:14:26;;;;;;;5.53;2.33;;;;;26.00;98029.00;;;;5092587;28;20040;-66
2023/08/25 09:16:59;;;;;;;2.67;1.90;;;;;25.90;98023.00;;;;5092696;28;20659;-66
2023/08/25 09:19:32;;;;;;;2.60;2.40;;;;;26.00;98030.00;;;;5090993;28;20472;-66
2023/08/25 09:22:01;;;;;;;6.47;2.65;;;;;25.90;98034.00;;;;5092561;28;20155;-66
2023/08/25 09:24:29;;;;;;;4.93;2.70;;;;;26.00;98051.00;;;;5092465;28;20044;-66
2023/08/25 09:26:55;;;;;;;3.42;2.22;;;;;26.10;98050.00;;;;5092489;28;20044;-66
2023/08/25 09:29:26;;;;;;;3.53;2.55;;;;;26.00;98058.00;;;;5092353;28;20123;-66
2023/08/25 09:31:52;;;;;;;2.10;2.00;;;;;26.10;98053.00;;;;5092550;28;20044;-66
2023/08/25 09:34:19;;;;;;;2.45;2.10;;;;;26.20;98060.00;;;;5092705;28;20113;-66
2023/08/25 09:36:56;;;;;;;3.53;2.80;;;;;26.30;98057.00;;;;5092467;28;20105;-64
2023/08/25 09:39:23;;;;;;;3.97;2.35;;;;;26.30;98061.00;;;;5092290;28;20097;-64
2023/08/25 09:41:50;;;;;;;3.40;2.05;;;;;26.20;98047.00;;;;5092660;28;20455;-65
2023/08/25 09:44:17;;;;;;;3.15;2.20;;;;;26.30;98042.00;;;;5092336;28;20067;-64
2023/08/25 09:46:44;;;;;;;3.45;2.03;;;;;26.50;98035.00;;;;5091423;28;20067;-64
2023/08/25 09:49:13;;;;;;;3.47;2.10;;;;;26.60;98030.00;;;;5092399;28;20054;-64
2023/08/25 09:51:44;;;;;;;2.35;1.83;;;;;26.70;98034.00;;;;5092182;28;20038;-65
2023/08/25 09:54:13;;;;;;;2.70;2.40;;;;;26.70;98021.00;;;;5092086;28;20040;-64
2023/08/25 09:56:41;;;;;;;3.65;2.28;;;;;26.80;98021.00;;;;5092179;28;20475;-64
2023/08/25 09:59:10;;;;;;;2.83;2.40;;;;;26.90;98025.00;;;;5092126;28;20032;-65
2023/08/25 10:01:39;;;;;;;4.13;2.10;;;;;27.00;98029.00;;;;5092069;28;20056;-65
2023/08/25 10:04:06;;;;;;;6.63;2.20;;;;;26.90;98042.00;;;;5091152;28;20507;-65
2023/08/25 10:06:36;;;;;;;2.60;2.10;;;;;26.90;98030.00;;;;5092059;28;20058;-64
2023/08/25 10:09:03;;;;;;;7.40;2.13;;;;;26.80;98044.00;;;;5092158;28;20130;-65
2023/08/25 10:11:36;;;;;;;3.10;1.88;;;;;26.70;98045.00;;;;5091831;28;20540;-65
2023/08/25 10:14:07;;;;;;;2.40;2.17;;;;;26.80;98049.00;;;;5090795;28;20074;-63
2023/08/25 10:16:38;;;;;;;2.10;2.00;;;;;26.80;98057.00;;;;5091829;28;20044;-63
2023/08/25 10:19:08;;;;;;;3.47;2.13;;;;;26.80;98058.00;;;;5092010;28;20132;-65
2023/08/25 10:21:35;;;;;;;2.90;2.50;;;;;26.80;98053.00;;;;5091897;28;20054;-63
2023/08/25 10:24:02;;;;;;;2.30;2.10;;;;;26.80;98061.00;;;;5092013;28;20089;-63
2023/08/25 10:26:29;;;;;;;4.03;2.20;;;;;26.80;98055.00;;;;5091952;28;20451;-63
2023/08/25 10:28:57;;;;;;;2.75;2.10;;;;;26.80;98047.00;;;;5091733;28;20123;-62
2023/08/25 10:31:25;;;;;;;3.60;2.50;;;;;26.80;98044.00;;;;5090521;28;20119;-62
2023/08/25 10:33:53;;;;;;;4.32;2.25;;;;;26.70;98046.00;;;;5091801;28;20044;-62
2023/08/25 10:36:21;;;;;;;2.53;2.33;;;;;26.70;98052.00;;;;5090674;28;20094;-63
2023/08/25 10:38:54;;;;;;;2.92;2.22;;;;;26.60;98047.00;;;;5092000;28;20225;-64
2023/08/25 10:41:23;;;;;;;3.17;2.00;;;;;26.60;98045.00;;;;5095484;28;20067;-64
2023/08/25 10:43:54;;;;;;;4.35;2.58;;;;;26.60;98053.00;;;;5095570;28;20044;-64
2023/08/25 10:46:24;;;;;;;2.90;2.38;;;;;26.60;98032.00;;;;5095618;28;20047;-63
2023/08/25 10:49:12;;;;;;;3.78;2.40;;;;;26.70;98035.00;;;;5095404;28;20436;-63
2023/08/25 10:51:39;;;;;;;3.33;2.28;;;;;26.70;98035.00;;;;5095422;28;20044;-63
2023/08/25 10:54:16;;;;;;;3.28;2.60;;;;;26.60;98038.00;;;;5095116;28;20048;-64
2023/08/25 10:56:42;;;;;;;2.47;2.28;;;;;26.60;98046.00;;;;5094208;28;20094;-64
2023/08/25 10:59:10;;;;;;;4.13;3.72;;;;;26.60;98032.00;;;;5095306;28;20055;-64
2023/08/25 11:01:37;;;;;;;3.67;2.78;;;;;26.60;98037.00;;;;5095178;28;20040;-64
2023/08/25 11:04:11;;;;;;;6.97;3.28;;;;;26.60;98034.00;;;;5094956;28;20520;-63
2023/08/25 11:06:46;;;;;;;4.35;2.40;;;;;26.70;98034.00;;;;5095072;28;20487;-63
2023/08/25 11:09:18;;;;;;;6.97;2.95;;;;;26.70;98039.00;;;;5095446;28;20481;-62
2023/08/25 11:11:46;;;;;;;3.22;2.50;;;;;26.70;98032.00;;;;5095035;28;20051;-63
2023/08/25 11:14:13;;;;;;;6.50;3.05;;;;;26.70;98035.00;;;;5093744;28;20046;-64
2023/08/25 11:16:41;;;;;;;3.28;2.60;;;;;26.60;98036.00;;;;5094934;28;20042;-62
2023/08/25 11:19:13;;;;;;;6.55;3.55;;;;;26.70;98034.00;;;;5093515;28;20048;-62
2023/08/25 11:21:40;;;;;;;3.50;3.05;;;;;26.70;98036.00;;;;5094889;28;20075;-63
2023/08/25 11:24:07;;;;;;;3.22;2.17;;;;;26.80;98039.00;;;;5094667;28;20072;-63
2023/08/25 11:26:34;;;;;;;5.75;2.70;;;;;26.90;98038.00;;;;5094781;28;20499;-62
2023/08/25 11:29:02;;;;;;;4.05;2.92;;;;;26.90;98029.00;;;;5094725;28;20044;-62
2023/08/25 11:31:29;;;;;;;6.78;2.70;;;;;26.80;98041.00;;;;5094486;28;20117;-62
2023/08/25 11:33:56;;;;;;;3.97;3.40;;;;;26.80;98041.00;;;;5094462;28;20044;-63
2023/08/25 11:36:24;;;;;;;3.78;2.95;;;;;26.80;98031.00;;;;5094499;28;20126;-63
2023/08/25 11:38:51;;;;;;;6.18;4.63;;;;;26.90;98033.00;;;;5094485;28;20097;-63
2023/08/25 11:41:18;;;;;;;3.67;2.88;;;;;27.00;98045.00;;;;5094354;28;20089;-64
2023/08/25 11:43:46;;;;;;;5.43;3.20;;;;;27.00;98053.00;;;;5094304;28;20089;-62
2023/08/25 11:46:14;;;;;;;9.02;3.67;;;;;27.10;98061.00;;;;5094148;28;20503;-62
2023/08/25 11:48:41;;;;;;;4.90;3.10;;;;;27.10;98058.00;;;;5094351;28;20067;-61
2023/08/25 11:51:15;;;;;;;7.93;4.07;;;;;27.20;98060.00;;;;5092579;28;20040;-61
2023/08/25 11:53:44;;;;;;;19.58;10.60;;;;;27.30;98051.00;;;;5094364;28;20055;-62
2023/08/25 11:56:19;;;;;;;4.72;2.65;;;;;27.50;98051.00;;;;5094208;28;20050;-61
2023/08/25 11:58:47;;;;;;;7.93;6.28;;;;;27.70;98046.00;;;;5094015;28;20544;-61
2023/08/25 12:01:14;;;;;;;4.10;3.17;;;;;27.70;98050.00;;;;5093771;28;20068;-61
2023/08/25 12:03:45;;;;;;;3.78;2.97;;;;;27.80;98052.00;;;;5093930;28;20484;-63
2023/08/25 12:06:12;;;;;;;3.08;2.78;;;;;27.90;98054.00;;;;5093808;28;20069;-62
2023/08/25 12:08:40;;;;;;;4.10;3.05;;;;;27.80;98039.00;;;;5093748;28;20046;-61
2023/08/25 12:11:10;;;;;;;3.35;2.97;;;;;27.80;98055.00;;;;5093302;28;20050;-61
2023/08/25 12:13:42;;;;;;;5.03;3.30;;;;;27.80;98041.00;;;;5093718;28;20074;-62
2023/08/25 12:16:12;;;;;;;4.32;2.72;;;;;27.80;98046.00;;;;5093664;28;20048;-61
2023/08/25 12:18:42;;;;;;;5.93;3.65;;;;;27.90;98046.00;;;;5093693;28;20070;-60
2023/08/25 12:21:08;;;;;;;4.82;4.25;;;;;28.00;98053.00;;;;5093622;28;20043;-60